Home > Products > Valid Products > SSM

000
SMZS01 NSTU 261756
SSMPPG
AAXX 26184
91765 11569 30000 10268 20252 30027 40030 52014 60031 70281 82101
333 568/9 70028 555 92618=




000
SMZS01 NSTU 261200
SSMPPG
AAXX 26124
91765 11466 79904 10277 20247 30025 40029 57012 69931 72582 85110
333 10309 5689/ 59015 70003 555 92612=




000
SMZS01 NSTU 260600
SSMPPG
AAXX 26064
91765 32569 80603 10293 20244 30022 40025 52010 83121 333 56999
70178 555 92606=




000
SMZS01 NSTU 252357
SSMPPG
AAXX 26004
91765 12569 79905 10298 20245 30024 40027 57015 60184 84414 333
20241 56499 59007 70178 555 92600=




000
SMZS01 NSTU 251757
SSMPPG
AAXX 25184
91765 32569 39903 10241 20236 30037 40041 51012 81108 333 569/9
70178 555 92518=




000
SMZS01 NSTU 251220
SSMPPG
AAXX 25124
91765 11566 89903 10250 20230 30041 40044 56014 60181 70298 8582/
333 10307 56999 59020 70198 555 92512=




000
SMZS01 NSTU 250601
SSMPPG
AAXX 25064
91765 32567 72303 10292 20241 30036 40039 52010 84474 333 56599
70020 555 92506=




000
SMZS01 NSTU 250153
SSMPPG
AAXX 25004
91765 12569 72506 10305 20233 30030 40034 56019 60024 83120 333
20256 5669/ 59020 70020 555 92500=




000
SMZS01 NSTU 250153
SSMPPG
AAXX 25004
91765 12569 72506 10305 20233 30030 40034 56019 60024 83120 333
20256 5669/ 59020 70020 555 92500=




000
SMZS01 NSTU 241756
SSMPPG
AAXX 24184
91765 11566 80000 10259 20249 30054 40058 51007 60021 72582 8587/
333 56999 70020 555 92418=




000
SMZS01 NSTU 241229
SSMPPG
AAXX 24124
91765 32566 89903 10271 20233 30061 40064 56012 8687/ 333 10304
56999 58006 555 92412=




000
SMZS01 NSTU 240556
SSMPPG
AAXX 24064
91765 32569 42603 10289 20222 30058 40061 53014 83120 333 5699/
70000 555 92406=




000
SMZS01 NSTU 232357
SSMPPG
AAXX 24004
91765 12569 11808 10302 20229 30051 40054 56017 69934 81105 333
20243 564/9 59007 70003 555 92400=




    US Dept of Commerce
    National Oceanic and Atmospheric Administration
    National Weather Service
    1325 East West Highway
    Silver Spring, MD 20910
    Page Author: NWS Internet Services Team
Disclaimer
Information Quality
Credits
Glossary
Privacy Policy
Freedom of Information Act (FOIA)
About Us
Career Opportunities